ADDS METAR Data INFO
IDs: Format: Raw Decoded Include TAF

Data at: 0405 UTC 19 Jul 2018

KHZX 190355Z AUTO 00000KT 10SM CLR 17/15 A2999 RMK AO2
KHZX 190335Z AUTO 15003KT 10SM CLR 18/15 A2999 RMK AO2
KHZX 190315Z AUTO 15003KT 10SM CLR 18/15 A2999 RMK AO2
KHZX 190255Z AUTO 15003KT 10SM CLR 18/16 A2999 RMK AO2
KHZX 190235Z AUTO 15003KT 10SM CLR 18/16 A2999 RMK AO2
KHZX 190215Z AUTO 15003KT 10SM CLR 19/16 A2999 RMK AO2
KHZX 190155Z AUTO 14004KT 10SM CLR 20/16 A2999 RMK AO2
KHZX 190135Z AUTO 14003KT 10SM CLR 22/16 A2999 RMK AO2
KHZX 190115Z AUTO 15004KT 10SM CLR 22/16 A2999 RMK AO2
KHZX 190055Z AUTO 15003KT 10SM CLR 22/16 A3000 RMK AO2
KHZX 190035Z AUTO 16006KT 10SM CLR 23/16 A3000 RMK AO2
KHZX 190015Z AUTO 14004KT 10SM CLR 23/16 A3000 RMK AO2
KHZX 182355Z AUTO 14003KT 10SM CLR 24/15 A3000 RMK AO2
KHZX 182335Z AUTO 00000KT 10SM CLR 23/15 A3001 RMK AO2
KHZX 182315Z AUTO 13003KT 10SM CLR 23/14 A3001 RMK AO2
KHZX 182255Z AUTO 18003KT 10SM CLR 25/13 A3002 RMK AO2
KHZX 182235Z AUTO 19004KT 10SM CLR 25/12 A3002 RMK AO2
KHZX 182215Z AUTO 20005KT 10SM CLR 25/13 A3003 RMK AO2
KHZX 182155Z AUTO 18007KT 10SM CLR 25/13 A3003 RMK AO2
KHZX 182135Z AUTO 23003KT 10SM CLR 25/11 A3004 RMK AO2
KHZX 182115Z AUTO 22010KT 10SM CLR 25/12 A3005 RMK AO2
KHZX 182055Z AUTO 18007G15KT 10SM CLR 26/13 A3005 RMK AO2
KHZX 182035Z AUTO 20009KT 10SM CLR 26/13 A3005 RMK AO2
KHZX 182015Z AUTO 18006G15KT 7SM SCT050 26/13 A3006 RMK AO2
KHZX 181955Z AUTO 19005G08KT 10SM SCT050 26/14 A3006 RMK AO2
KHZX 181935Z AUTO 19006KT 10SM SCT049 26/14 A3006 RMK AO2
KHZX 181915Z AUTO 21006KT 7SM SCT049 26/13 A3006 RMK AO2
KHZX 181855Z AUTO 22007KT 10SM SCT047 25/13 A3007 RMK AO2
KHZX 181835Z AUTO 19004KT 10SM BKN045 25/13 A3007 RMK AO2
KHZX 181815Z AUTO 19006KT 7SM SCT045 25/13 A3008 RMK AO2
KHZX 181755Z AUTO 00000KT 10SM SCT043 24/13 A3008 RMK AO2
KHZX 181735Z AUTO 19004KT 10SM SCT045 25/15 A3009 RMK AO2
KHZX 181715Z AUTO 22006KT 10SM SCT045 SCT050 25/13 A3009 RMK AO2
KHZX 181655Z AUTO 21007KT 10SM SCT045 SCT050 24/13 A3010 RMK AO2
KHZX 181635Z AUTO 19006KT 10SM SCT043 SCT050 23/13 A3011 RMK AO2
KHZX 181615Z AUTO 23004KT 10SM SCT041 24/13 A3011 RMK AO2
KHZX 181555Z AUTO 17006KT 10SM CLR 23/15 A3012 RMK AO2
KHZX 181535Z AUTO 21006KT 10SM CLR 23/13 A3012 RMK AO2
KHZX 181515Z AUTO 18007KT 10SM CLR 23/14 A3012 RMK AO2
KHZX 181455Z AUTO 19006KT 10SM CLR 22/14 A3012 RMK AO2
KHZX 181435Z AUTO 22005KT 10SM CLR 22/13 A3013 RMK AO2
KHZX 181415Z AUTO 18005KT 10SM CLR 21/13 A3013 RMK AO2
KHZX 181355Z AUTO 19006KT 10SM CLR 20/13 A3013 RMK AO2
KHZX 181335Z AUTO 17004KT 10SM CLR 19/15 A3014 RMK AO2
KHZX 181315Z AUTO 17004KT 10SM CLR 17/15 A3014 RMK AO2
KHZX 181255Z AUTO 00000KT 10SM CLR 16/15 A3014 RMK AO2
KHZX 181235Z AUTO 00000KT 10SM CLR 15/14 A3014 RMK AO2
KHZX 181215Z AUTO 00000KT 10SM CLR 14/13 A3014 RMK AO2
KHZX 181155Z AUTO 00000KT 10SM CLR 13/13 A3014 RMK AO2
KHZX 181135Z AUTO 00000KT 10SM CLR 12/11 A3014 RMK AO2
KHZX 181115Z AUTO 00000KT 10SM CLR 11/11 A3014 RMK AO2
KHZX 181055Z AUTO 00000KT 3SM CLR 11/10 A3014 RMK AO2
KHZX 181035Z AUTO 00000KT 10SM CLR 11/10 A3014 RMK AO2
KHZX 181015Z AUTO 00000KT 10SM CLR 12/11 A3014 RMK AO2
KHZX 180955Z AUTO 12003KT 10SM CLR 12/11 A3013 RMK AO2
KHZX 180935Z AUTO 00000KT 1SM SCT048 12/11 A3013 RMK AO2 VIS 1/2V4
KHZX 180915Z AUTO 00000KT 10SM CLR 12/11 A3014 RMK AO2
KHZX 180855Z AUTO 00000KT 10SM CLR 12/11 A3013 RMK AO2
KHZX 180835Z AUTO 00000KT 10SM CLR 13/12 A3012 RMK AO2
KHZX 180815Z AUTO 00000KT 1 1/2SM VV007 12/12 A3012 RMK AO2
KHZX 180755Z AUTO 00000KT 10SM CLR 12/11 A3012 RMK AO2
KHZX 180735Z AUTO 00000KT 7SM CLR 13/12 A3012 RMK AO2
KHZX 180715Z AUTO 00000KT 10SM CLR 13/12 A3012 RMK AO2
KHZX 180655Z AUTO 00000KT 5SM CLR 13/12 A3012 RMK AO2
KHZX 180636Z AUTO 00000KT 10SM CLR 14/12 A3012 RMK AO2
KHZX 180615Z AUTO 00000KT 10SM CLR 13/12 A3012 RMK AO2
KHZX 180555Z AUTO 00000KT 10SM CLR 13/12 A3012 RMK AO2
KHZX 180536Z AUTO 00000KT 10SM CLR 13/12 A3013 RMK AO2
KHZX 180515Z AUTO 00000KT 10SM CLR 14/12 A3013 RMK AO2
KHZX 180455Z AUTO 00000KT 10SM CLR 15/13 A3013 RMK AO2
KHZX 180435Z AUTO 00000KT 10SM CLR 15/12 A3012 RMK AO2
KHZX 180415Z AUTO 00000KT 10SM CLR 15/13 A3012 RMK AO2
KHZX 180355Z AUTO 00000KT 10SM CLR 15/13 A3013 RMK AO2
KHZX 180336Z AUTO 00000KT 10SM CLR 16/13 A3013 RMK AO2
KHZX 180315Z AUTO 00000KT 10SM SCT050 19/12 A3013 RMK AO2
KHZX 180255Z AUTO 23003KT 10SM CLR 19/12 A3013 RMK AO2
KHZX 180236Z AUTO 23003KT 10SM CLR 20/12 A3012 RMK AO2
KHZX 180215Z AUTO 24003KT 10SM CLR 20/13 A3012 RMK AO2
KHZX 180155Z AUTO 00000KT 10SM CLR 21/12 A3012 RMK AO2
KHZX 180135Z AUTO 25003KT 10SM CLR 21/12 A3012 RMK AO2
KHZX 180115Z AUTO 26003KT 10SM CLR 22/12 A3012 RMK AO2
KHZX 180055Z AUTO 26003KT 10SM SCT060 23/11 A3012 RMK AO2
KHZX 180035Z AUTO 26003KT 10SM SCT060 23/11 A3012 RMK AO2
KHZX 180015Z AUTO 00000KT 10SM SCT060 23/11 A3012 RMK AO2
KHZX 172355Z AUTO 00000KT 10SM CLR 24/12 A3012 RMK AO2
KHZX 172335Z AUTO 00000KT 10SM SCT055 24/12 A3013 RMK AO2
KHZX 172315Z AUTO 01003KT 10SM SCT055 23/11 A3013 RMK AO2
KHZX 172255Z AUTO 00000KT 10SM CLR 25/11 A3013 RMK AO2
KHZX 172235Z AUTO 00000KT 10SM CLR 23/10 A3014 RMK AO2
KHZX 172215Z AUTO 00000KT 10SM CLR 23/11 A3014 RMK AO2
KHZX 172155Z AUTO 35003KT 10SM SCT055 25/11 A3014 RMK AO2
KHZX 172135Z AUTO 00000KT 10SM BKN055 25/11 A3014 RMK AO2
KHZX 172115Z AUTO 00000KT 10SM SCT055 24/12 A3015 RMK AO2
KHZX 172055Z AUTO 00000KT 10SM SCT055 23/11 A3015 RMK AO2
KHZX 172035Z AUTO 00000KT 10SM CLR 23/11 A3015 RMK AO2
KHZX 172015Z AUTO 00000KT 10SM SCT050 23/11 A3015 RMK AO2
KHZX 171955Z AUTO 00000KT 10SM OVC050 22/11 A3016 RMK AO2
KHZX 171935Z AUTO 35003KT 10SM SCT050 23/10 A3016 RMK AO2
KHZX 171915Z AUTO 00000KT 10SM SCT050 23/09 A3016 RMK AO2
KHZX 171855Z AUTO 03004KT 10SM SCT050 23/10 A3016 RMK AO2
KHZX 171835Z AUTO 00000KT 10SM BKN050 21/10 A3016 RMK AO2
KHZX 171815Z AUTO 27003KT 10SM SCT050 22/10 A3017 RMK AO2
KHZX 171755Z AUTO 27005KT 10SM CLR 22/10 A3017 RMK AO2
KHZX 171735Z AUTO 00000KT 10SM CLR 22/10 A3017 RMK AO2
KHZX 171715Z AUTO 00000KT 10SM CLR 22/10 A3018 RMK AO2
KHZX 171655Z AUTO 26003KT 10SM SCT044 SCT050 21/11 A3018 RMK AO2
KHZX 171635Z AUTO 33004KT 10SM BKN044 21/11 A3018 RMK AO2
KHZX 171615Z AUTO 00000KT 10SM BKN038 BKN044 20/11 A3018 RMK AO2